Time;durP1;ratioP1;P1;durP2;ratioP2;P2;SDS_P1;SDS_P2;PMS_P1;PMS_P2;Temp;Humidity;BMP_temperature;BMP_pressure;BME280_temperature;BME280_humidity;BME280_pressure;Samples;Min_cycle;Max_cycle;Signal;HPM_P1;HPM_P2
2024/01/27 00:01:16;;;;;;;3.83;2.37;;;;;;;-144.30;61.21;86450.19;5049672;28;20200;-57
2024/01/27 00:03:43;;;;;;;2.63;2.07;;;;;;;-144.30;61.48;86454.19;5049235;28;20723;-58
2024/01/27 00:06:10;;;;;;;2.63;2.20;;;;;;;-144.30;60.75;86438.28;5049576;28;20201;-58
2024/01/27 00:08:39;;;;;;;3.33;2.10;;;;;;;-144.30;60.63;86470.09;5049699;28;20294;-57
2024/01/27 00:11:06;;;;;;;3.30;2.10;;;;;;;-144.30;61.11;86452.19;5049769;28;20637;-58
2024/01/27 00:13:33;;;;;;;2.60;2.37;;;;;;;-144.30;61.22;86410.44;5050154;28;20274;-58
2024/01/27 00:16:00;;;;;;;3.77;2.40;;;;;;;-144.30;60.94;86456.16;5049645;28;20907;-57
2024/01/27 00:18:27;;;;;;;3.60;2.23;;;;;;;-144.30;60.71;86430.31;5049700;28;20239;-56
2024/01/27 00:20:54;;;;;;;4.23;2.03;;;;;;;-144.30;60.53;86434.28;5049374;28;20204;-56
2024/01/27 00:23:21;;;;;;;4.07;2.30;;;;;;;-144.30;60.58;86428.31;5049686;28;20208;-56
2024/01/27 00:25:50;;;;;;;3.50;2.50;;;;;;;-144.30;60.31;86418.38;5049834;28;20665;-56
2024/01/27 00:28:17;;;;;;;2.20;2.00;;;;;;;-144.30;60.18;86466.09;5049313;28;20231;-56
2024/01/27 00:30:44;;;;;;;3.47;2.30;;;;;;;-144.30;60.17;86370.66;5056538;28;20199;-57
2024/01/27 00:33:11;;;;;;;2.67;2.27;;;;;;;-144.30;60.18;86426.34;5069394;28;20269;-57
2024/01/27 00:35:38;;;;;;;2.20;2.00;;;;;;;-144.30;59.62;86424.34;5055274;28;20220;-58
2024/01/27 00:38:06;;;;;;;2.50;2.17;;;;;;;-144.30;59.42;86434.28;5053536;28;20192;-58
2024/01/27 00:40:33;;;;;;;2.23;2.10;;;;;;;-144.30;59.58;86426.34;5053857;28;20208;-58
2024/01/27 00:43:03;;;;;;;4.70;1.90;;;;;;;-144.30;59.67;86412.41;5053357;28;20268;-58
2024/01/27 00:45:30;;;;;;;3.53;1.97;;;;;;;-144.30;59.88;86470.09;5053490;28;20224;-57
2024/01/27 00:47:57;;;;;;;4.03;1.97;;;;;;;-144.30;60.07;86458.16;5053155;28;20224;-58
2024/01/27 00:50:24;;;;;;;2.73;1.73;;;;;;;-144.30;59.89;86430.31;5053265;28;20279;-58
2024/01/27 00:52:51;;;;;;;2.70;2.50;;;;;;;-144.30;59.92;86060.47;5053512;28;20640;-57
2024/01/27 00:55:18;;;;;;;3.03;2.60;;;;;;;-144.30;59.57;86356.75;5053249;28;20287;-57
2024/01/27 00:57:45;;;;;;;2.90;2.43;;;;;;;-144.30;60.17;86374.63;5053273;28;20224;-56
2024/01/27 01:00:15;;;;;;;3.20;2.50;;;;;;;-144.30;59.86;86434.28;5052596;28;20279;-57
2024/01/27 01:02:42;;;;;;;4.57;2.70;;;;;;;-144.30;59.70;86454.19;5052390;28;20200;-56
2024/01/27 01:05:09;;;;;;;4.67;2.83;;;;;;;-144.30;60.18;86478.03;5052675;28;20200;-57
2024/01/27 01:07:36;;;;;;;3.17;2.73;;;;;;;-144.30;59.97;86450.19;5052997;28;20672;-56
2024/01/27 01:10:04;;;;;;;4.97;3.47;;;;;;;-144.30;59.85;86458.16;5052528;28;20204;-56
2024/01/27 01:12:31;;;;;;;3.93;3.27;;;;;;;-144.30;60.45;86442.25;5052445;28;20207;-57
2024/01/27 01:14:58;;;;;;;5.17;4.03;;;;;;;-144.30;60.38;86466.09;5052701;28;20198;-58
2024/01/27 01:17:26;;;;;;;6.40;3.77;;;;;;;-144.30;60.53;86424.34;5052797;28;20310;-58
2024/01/27 01:19:53;;;;;;;4.70;3.63;;;;;;;-144.30;60.92;86454.19;5052838;28;20679;-57
2024/01/27 01:22:20;;;;;;;4.43;3.43;;;;;;;-144.30;61.09;86484.00;5052818;28;20197;-58
2024/01/27 01:24:47;;;;;;;6.07;3.63;;;;;;;-144.30;61.25;86497.94;5052737;28;20287;-58
2024/01/27 01:27:16;;;;;;;5.13;4.00;;;;;;;-144.30;61.45;86438.28;5052318;28;20686;-57
2024/01/27 01:29:43;;;;;;;6.17;3.40;;;;;;;-144.30;61.13;86501.91;5051335;28;20221;-58
2024/01/27 01:32:10;;;;;;;4.70;3.90;;;;;;;-144.30;61.18;86476.06;5051338;28;20201;-57
2024/01/27 01:34:38;;;;;;;3.60;2.93;;;;;;;-144.30;61.03;86436.28;5051778;28;20291;-58
2024/01/27 01:37:05;;;;;;;6.80;3.17;;;;;;;-144.30;60.27;86462.13;5050991;28;20206;-58
2024/01/27 01:39:32;;;;;;;4.67;3.03;;;;;;;-144.30;60.42;86484.00;5051252;28;20220;-57
2024/01/27 01:41:59;;;;;;;3.83;2.70;;;;;;;-144.30;60.21;86462.13;5051192;28;20205;-57
2024/01/27 01:44:31;;;;;;;3.03;2.30;;;;;;;-144.30;60.49;86466.09;5051211;28;20196;-57
2024/01/27 01:46:59;;;;;;;3.70;2.40;;;;;;;-144.30;60.12;86436.28;5050707;28;20197;-57
2024/01/27 01:49:26;;;;;;;5.37;2.90;;;;;;;-144.30;60.64;86474.06;5051126;28;20227;-56
2024/01/27 01:51:55;;;;;;;4.33;2.80;;;;;;;-144.30;60.40;86476.06;5051100;28;20201;-57
2024/01/27 01:54:27;;;;;;;4.70;2.30;;;;;;;-144.30;60.19;86474.06;5051060;28;20196;-58
2024/01/27 01:56:56;;;;;;;3.33;2.30;;;;;;;-144.30;60.31;86458.16;5050906;28;20248;-58
2024/01/27 01:59:23;;;;;;;4.67;2.97;;;;;;;-144.30;60.75;86464.13;5051250;28;20201;-58
2024/01/27 02:01:50;;;;;;;3.47;2.37;;;;;;;-144.30;60.55;86396.50;5050960;28;20236;-57
2024/01/27 02:04:17;;;;;;;2.70;2.33;;;;;;;-144.30;60.79;86480.03;5050842;28;20246;-58
2024/01/27 02:06:44;;;;;;;2.83;2.57;;;;;;;-144.30;60.72;86430.31;5050729;28;20193;-57
2024/01/27 02:09:12;;;;;;;3.27;2.10;;;;;;;-144.30;60.82;86442.25;5050683;28;20311;-55
2024/01/27 02:11:39;;;;;;;3.10;2.33;;;;;;;-144.30;60.50;86466.09;5050816;28;20200;-56
2024/01/27 02:14:07;;;;;;;3.10;2.27;;;;;;;-144.30;60.26;86452.19;5050767;28;20196;-57
2024/01/27 02:16:34;;;;;;;3.00;2.33;;;;;;;-144.30;59.93;86493.94;5050273;28;20618;-55
2024/01/27 02:19:01;;;;;;;2.70;2.50;;;;;;;-144.30;59.68;86462.13;5050220;28;20735;-56
2024/01/27 02:21:28;;;;;;;3.43;2.33;;;;;;;-144.30;59.81;86468.09;5050285;28;20201;-57
2024/01/27 02:23:55;;;;;;;4.73;2.40;;;;;;;-144.30;59.59;86470.09;5050160;28;20205;-57
2024/01/27 02:26:24;;;;;;;3.53;2.17;;;;;;;-144.30;60.03;86430.31;5050292;28;20231;-57
2024/01/27 02:28:51;;;;;;;3.80;2.20;;;;;;;-144.30;60.07;86454.19;5006894;28;1254099;-57
2024/01/27 02:31:18;;;;;;;3.17;2.53;;;;;;;-144.30;60.03;86478.03;5051358;28;20203;-57
2024/01/27 02:33:45;;;;;;;2.60;2.40;;;;;;;-144.30;59.71;86489.97;5051256;28;20196;-57
2024/01/27 02:36:12;;;;;;;6.83;2.40;;;;;;;-144.30;59.74;86484.00;5051306;28;20258;-57
2024/01/27 02:38:39;;;;;;;5.07;2.57;;;;;;;-144.30;59.69;86474.06;5051136;28;20189;-58
2024/01/27 02:41:06;;;;;;;2.90;2.60;;;;;;;-144.30;59.52;86398.50;5051212;28;20208;-58
2024/01/27 02:43:34;;;;;;;3.00;2.17;;;;;;;-144.30;59.42;86474.06;5051359;28;20706;-57
2024/01/27 02:46:01;;;;;;;2.63;2.33;;;;;;;-144.30;59.49;86515.81;5051089;28;20201;-57
2024/01/27 02:48:28;;;;;;;2.80;2.20;;;;;;;-144.30;59.24;86482.03;5051056;28;20228;-58
2024/01/27 02:50:55;;;;;;;4.47;2.93;;;;;;;-144.30;59.26;86478.03;5051028;28;20230;-57
2024/01/27 02:53:22;;;;;;;3.63;2.73;;;;;;;-144.30;59.25;86497.94;5051159;28;20205;-57
2024/01/27 02:55:50;;;;;;;3.07;2.00;;;;;;;-144.30;59.03;86370.66;5051376;28;20745;-57
2024/01/27 02:58:17;;;;;;;4.03;2.10;;;;;;;-144.30;59.17;86486.00;5050654;28;20207;-56
2024/01/27 03:00:45;;;;;;;1.90;1.80;;;;;;;-144.30;59.00;86482.03;5051076;28;20264;-56
2024/01/27 03:03:12;;;;;;;2.70;2.33;;;;;;;-144.30;59.43;86464.13;5050692;28;20711;-57
2024/01/27 03:05:39;;;;;;;4.30;2.30;;;;;;;-144.30;59.62;86474.06;5050661;28;20284;-56
2024/01/27 03:08:07;;;;;;;6.10;2.47;;;;;;;-144.30;59.66;86482.03;5050861;28;20206;-57
2024/01/27 03:10:34;;;;;;;6.13;2.53;;;;;;;-144.30;59.61;86466.09;5050577;28;20708;-56
2024/01/27 03:13:01;;;;;;;4.10;2.60;;;;;;;-144.30;59.39;86474.06;5050523;28;20196;-56
2024/01/27 03:15:28;;;;;;;5.60;2.73;;;;;;;-144.30;60.09;86489.97;5050935;28;20201;-56
2024/01/27 03:17:56;;;;;;;3.67;2.50;;;;;;;-144.30;60.33;86495.94;5050491;28;20216;-56
2024/01/27 03:20:23;;;;;;;3.17;2.60;;;;;;;-144.30;59.97;86491.97;5050441;28;20188;-56
2024/01/27 03:22:50;;;;;;;3.67;2.60;;;;;;;-144.30;60.31;86509.84;5050539;28;20291;-56
2024/01/27 03:25:17;;;;;;;5.40;3.17;;;;;;;-144.30;60.14;86509.84;5050571;28;20227;-57
2024/01/27 03:27:44;;;;;;;4.00;2.90;;;;;;;-144.30;60.08;86533.72;5050517;28;20290;-56
2024/01/27 03:30:12;;;;;;;3.03;2.73;;;;;;;-144.30;60.51;86476.06;5050182;28;20227;-56
2024/01/27 03:32:39;;;;;;;4.30;2.70;;;;;;;-144.30;60.83;86525.75;5050356;28;20201;-58
2024/01/27 03:35:08;;;;;;;3.50;2.70;;;;;;;-144.30;61.07;86519.81;5050647;28;20632;-57
2024/01/27 03:37:35;;;;;;;4.47;2.87;;;;;;;-144.30;60.94;86513.84;5050500;28;20237;-56
2024/01/27 03:40:02;;;;;;;3.33;2.87;;;;;;;-144.30;60.85;86519.81;5049944;28;20200;-57
2024/01/27 03:42:29;;;;;;;3.40;2.90;;;;;;;-144.30;60.82;86513.84;5050229;28;20202;-57
2024/01/27 03:44:56;;;;;;;3.83;2.40;;;;;;;-144.30;60.75;86418.38;5049734;28;20196;-56
2024/01/27 03:47:23;;;;;;;4.93;3.00;;;;;;;-144.30;60.93;86487.97;5049474;28;20651;-56
2024/01/27 03:49:50;;;;;;;3.13;2.60;;;;;;;-144.30;60.96;86523.78;5049738;28;20240;-56
2024/01/27 03:52:19;;;;;;;2.70;2.43;;;;;;;-144.30;60.61;86501.91;5050126;28;20196;-56
2024/01/27 03:54:46;;;;;;;4.07;2.43;;;;;;;-144.30;60.64;86491.97;5049973;28;20293;-57
2024/01/27 03:57:13;;;;;;;2.70;2.50;;;;;;;-144.30;60.38;86515.81;5049372;28;20208;-58
2024/01/27 03:59:41;;;;;;;2.10;2.00;;;;;;;-144.30;59.99;86487.97;5049350;28;20651;-58
2024/01/27 04:02:08;;;;;;;3.47;2.10;;;;;;;-144.30;59.90;86476.06;5049509;28;20211;-58
2024/01/27 04:04:35;;;;;;;3.93;2.63;;;;;;;-144.30;59.56;86474.06;5050095;28;20270;-58
2024/01/27 04:07:02;;;;;;;2.27;2.07;;;;;;;-144.30;59.10;86454.19;5049681;28;20255;-57
2024/01/27 04:09:31;;;;;;;4.90;2.20;;;;;;;-144.30;59.03;86484.00;5049810;28;20774;-58
2024/01/27 04:11:58;;;;;;;2.83;1.90;;;;;;;-144.30;58.53;86527.75;5049662;28;20658;-58
2024/01/27 04:14:25;;;;;;;5.63;1.80;;;;;;;-144.30;58.17;86478.03;5049645;28;20230;-57
2024/01/27 04:16:52;;;;;;;3.73;2.33;;;;;;;-144.30;58.54;86482.03;5050091;28;20266;-57
2024/01/27 04:19:19;;;;;;;5.77;2.90;;;;;;;-144.30;58.54;86462.13;5049731;28;20278;-58
2024/01/27 04:21:46;;;;;;;5.20;3.10;;;;;;;-144.30;58.31;86515.81;5049583;28;20201;-58
2024/01/27 04:24:13;;;;;;;4.70;3.30;;;;;;;-144.30;58.94;86460.16;5049918;28;20257;-57
2024/01/27 04:26:41;;;;;;;3.00;2.63;;;;;;;-144.30;58.08;86521.78;5049516;28;20283;-57
2024/01/27 04:29:08;;;;;;;3.30;3.00;;;;;;;-144.30;58.46;86446.22;5049724;28;20645;-58
2024/01/27 04:31:39;;;;;;;3.13;2.90;;;;;;;-144.30;58.77;86462.13;5049844;28;20684;-57
2024/01/27 04:34:06;;;;;;;3.83;3.17;;;;;;;-144.30;58.52;86430.31;5049208;28;20283;-56
2024/01/27 04:36:33;;;;;;;4.17;2.90;;;;;;;-144.30;58.88;86466.09;5049648;28;20201;-56
2024/01/27 04:39:00;;;;;;;7.60;3.17;;;;;;;-144.30;58.72;86458.16;5049404;28;20192;-58
2024/01/27 04:41:27;;;;;;;6.13;3.53;;;;;;;-144.30;58.86;86482.03;5049327;28;20287;-57
2024/01/27 04:43:56;;;;;;;3.73;2.40;;;;;;;-144.30;58.36;86460.16;5049465;28;20236;-57
2024/01/27 04:46:23;;;;;;;2.93;2.37;;;;;;;-144.30;58.25;86470.09;5049715;28;20200;-57
2024/01/27 04:48:50;;;;;;;6.40;3.30;;;;;;;-144.30;58.28;86448.22;5049560;28;20209;-58
2024/01/27 04:51:18;;;;;;;7.93;4.43;;;;;;;-144.30;58.73;86458.16;5049689;28;20659;-57
2024/01/27 04:53:45;;;;;;;9.80;5.30;;;;;;;-144.30;58.77;86462.13;5048981;28;20204;-57
2024/01/27 04:56:12;;;;;;;9.33;6.70;;;;;;;-144.30;58.89;86482.03;5048778;28;20634;-58
2024/01/27 04:58:39;;;;;;;14.23;8.30;;;;;;;-144.30;59.39;86454.19;5048812;28;20200;-58
2024/01/27 05:01:08;;;;;;;18.57;9.13;;;;;;;-144.30;59.58;86495.94;5049126;28;20700;-57
2024/01/27 05:03:35;;;;;;;15.67;8.70;;;;;;;-144.30;60.07;86448.22;5064983;28;20565;-58
2024/01/27 05:06:02;;;;;;;16.47;7.60;;;;;;;-144.30;60.44;86493.94;5055208;28;20688;-57
2024/01/27 05:08:29;;;;;;;13.57;7.80;;;;;;;-144.30;60.56;86484.00;5068454;28;20290;-56
2024/01/27 05:10:56;;;;;;;11.63;6.50;;;;;;;-144.30;60.06;86478.03;5068726;28;20306;-56
2024/01/27 05:13:23;;;;;;;10.80;7.00;;;;;;;-144.30;60.27;86446.22;5065166;28;20291;-56
2024/01/27 05:15:50;;;;;;;9.47;6.83;;;;;;;-144.30;60.33;86486.00;5068511;28;20282;-57
2024/01/27 05:18:18;;;;;;;14.57;7.17;;;;;;;-144.30;60.19;86482.03;5061016;28;20763;-56
2024/01/27 05:20:45;;;;;;;8.13;5.90;;;;;;;-144.30;59.84;86482.03;5060958;28;20196;-57
2024/01/27 05:23:12;;;;;;;8.23;4.77;;;;;;;-144.30;59.63;86452.19;5060773;28;20200;-57
2024/01/27 05:25:39;;;;;;;6.47;4.10;;;;;;;-144.30;58.66;86374.63;5061315;28;20231;-56
2024/01/27 05:28:07;;;;;;;8.83;3.80;;;;;;;-144.30;58.19;86450.19;5063108;28;20345;-56
2024/01/27 05:30:34;;;;;;;2.50;2.30;;;;;;;-144.30;56.84;86430.31;5062678;28;20277;-56
2024/01/27 05:33:01;;;;;;;3.57;2.17;;;;;;;-144.30;55.88;86402.47;5059365;28;20207;-58
2024/01/27 05:35:29;;;;;;;4.37;2.20;;;;;;;-144.30;55.34;86430.31;5063477;28;20235;-57
2024/01/27 05:37:57;;;;;;;3.53;1.90;;;;;;;-144.30;54.99;86426.34;5072061;28;20291;-58
2024/01/27 05:40:24;;;;;;;5.37;1.97;;;;;;;-144.30;54.35;86404.47;5072439;28;20618;-57
2024/01/27 05:42:51;;;;;;;4.10;1.90;;;;;;;-144.30;54.36;86406.44;5071107;28;20214;-57
2024/01/27 05:45:18;;;;;;;2.43;1.97;;;;;;;-144.30;54.04;86362.72;5065523;28;20287;-57
2024/01/27 05:47:45;;;;;;;2.77;1.70;;;;;;;-144.30;54.02;86358.72;5070371;28;20230;-57
2024/01/27 05:50:13;;;;;;;1.97;1.73;;;;;;;-144.30;54.29;86398.50;5070054;28;20319;-58
2024/01/27 05:52:41;;;;;;;4.60;1.80;;;;;;;-144.30;54.21;86400.50;5071781;28;20223;-59
2024/01/27 05:55:09;;;;;;;1.80;1.70;;;;;;;-144.30;53.67;86426.34;5071519;28;20196;-58
2024/01/27 05:57:37;;;;;;;3.20;1.70;;;;;;;-144.30;53.65;86414.41;5071916;28;20655;-58
2024/01/27 06:00:04;;;;;;;3.73;1.97;;;;;;;-144.30;54.02;86372.66;5070868;28;20230;-59
2024/01/27 06:02:31;;;;;;;2.33;2.10;;;;;;;-144.30;53.80;86398.50;5071612;28;20200;-56
2024/01/27 06:04:58;;;;;;;2.60;2.40;;;;;;;-144.30;53.68;86400.50;5070516;28;20208;-57
2024/01/27 06:07:25;;;;;;;5.13;2.47;;;;;;;-144.30;53.85;86406.44;5066936;28;20274;-55
2024/01/27 06:09:54;;;;;;;4.47;2.43;;;;;;;-144.30;54.31;86398.50;5051905;28;20373;-58
2024/01/27 06:12:21;;;;;;;10.43;2.27;;;;;;;-144.30;55.28;86406.44;5059063;28;20287;-58
2024/01/27 06:14:48;;;;;;;2.60;2.40;;;;;;;-144.30;55.62;86382.59;5054921;28;20275;-57
2024/01/27 06:17:16;;;;;;;2.90;2.23;;;;;;;-144.30;55.92;86392.53;5051442;28;20231;-58
2024/01/27 06:19:43;;;;;;;4.23;2.20;;;;;;;-144.30;56.29;86390.53;5051331;28;20203;-57
2024/01/27 06:22:12;;;;;;;3.80;2.23;;;;;;;-144.30;55.74;86386.56;5053172;28;20200;-58
2024/01/27 06:24:43;;;;;;;4.37;2.00;;;;;;;-144.30;56.37;86714.69;5065392;28;20257;-58
2024/01/27 06:27:12;;;;;;;3.50;2.03;;;;;;;-144.30;54.80;86402.47;5065442;28;20721;-58
2024/01/27 06:29:40;;;;;;;1.67;1.57;;;;;;;-144.30;54.89;86398.50;5066238;28;20669;-58
2024/01/27 06:32:07;;;;;;;2.77;2.13;;;;;;;-144.30;54.93;86422.38;5069826;28;20597;-58
2024/01/27 06:34:34;;;;;;;5.23;2.20;;;;;;;-144.30;55.29;86410.44;5068221;28;20204;-58
2024/01/27 06:37:01;;;;;;;10.73;3.10;;;;;;;-144.30;55.73;85937.19;5065444;28;20207;-58
2024/01/27 06:39:29;;;;;;;14.30;3.57;;;;;;;-144.30;57.31;86382.59;5070167;28;20208;-58
2024/01/27 06:41:56;;;;;;;12.67;4.90;;;;;;;-144.30;58.11;86426.34;5070543;28;20196;-58
2024/01/27 06:44:24;;;;;;;8.73;4.60;;;;;;;-144.30;59.22;86402.47;5070871;28;20644;-57
2024/01/27 06:46:51;;;;;;;8.33;5.27;;;;;;;-144.30;60.18;86412.41;5070829;28;20229;-58
2024/01/27 06:49:19;;;;;;;5.07;4.53;;;;;;;-144.30;61.63;86414.41;5070868;28;20831;-58
2024/01/27 06:51:46;;;;;;;7.77;4.80;;;;;;;-144.30;62.62;86422.38;5070738;28;20224;-58
2024/01/27 06:54:13;;;;;;;6.30;4.70;;;;;;;-144.30;63.12;86412.41;5068478;28;20672;-57
2024/01/27 06:56:40;;;;;;;6.70;4.40;;;;;;;-144.30;64.34;86406.44;5054306;28;20317;-57
2024/01/27 06:59:07;;;;;;;6.60;4.20;;;;;;;-144.30;64.79;86460.16;5050265;28;20200;-58
2024/01/27 07:01:36;;;;;;;5.93;3.83;;;;;;;-144.30;64.89;86452.19;5053341;28;20283;-58
2024/01/27 07:04:03;;;;;;;5.13;4.30;;;;;;;-144.30;64.80;86372.66;5059127;28;20250;-57
2024/01/27 07:06:30;;;;;;;8.73;3.90;;;;;;;-144.30;64.27;86450.19;5050580;28;20292;-56
2024/01/27 07:08:57;;;;;;;7.27;4.33;;;;;;;-144.30;65.15;86454.19;5052565;28;20604;-56
2024/01/27 07:11:24;;;;;;;5.37;4.00;;;;;;;-144.30;65.33;86470.09;5063964;28;20212;-56
2024/01/27 07:13:51;;;;;;;8.03;3.93;;;;;;;-144.30;65.85;86410.44;5063983;28;20375;-57
2024/01/27 07:16:18;;;;;;;5.47;4.43;;;;;;;-144.30;65.93;86458.16;5067788;28;20200;-57
2024/01/27 07:18:46;;;;;;;7.73;4.70;;;;;;;-144.30;66.37;86408.44;5070124;28;20249;-57
2024/01/27 07:21:17;;;;;;;4.43;3.80;;;;;;;-144.30;65.10;86430.31;5069063;28;20249;-57
2024/01/27 07:23:44;;;;;;;7.63;3.90;;;;;;;-144.30;64.97;86426.34;5067678;28;20206;-56
2024/01/27 07:26:11;;;;;;;7.17;4.30;;;;;;;-144.30;64.27;86800.19;5068543;28;20820;-57
2024/01/27 07:28:39;;;;;;;4.73;3.87;;;;;;;-144.30;64.04;86386.56;5074545;28;20615;-58
2024/01/27 07:31:06;;;;;;;8.77;6.50;;;;;;;-144.30;64.11;86406.44;5063459;28;20224;-58
2024/01/27 07:33:33;;;;;;;9.57;5.83;;;;;;;-144.30;63.94;86408.44;5068639;28;20227;-57
2024/01/27 07:36:02;;;;;;;6.70;4.70;;;;;;;-144.30;64.12;86406.44;5069762;28;20287;-58
2024/01/27 07:38:29;;;;;;;7.77;4.27;;;;;;;-144.30;64.01;86396.50;5069450;28;20192;-56
2024/01/27 07:40:56;;;;;;;8.00;3.23;;;;;;;-144.30;63.65;86382.59;5069662;28;20200;-57
2024/01/27 07:43:22;;;;;;;4.07;2.90;;;;;;;-144.30;63.27;86378.63;5069920;28;20279;-57
2024/01/27 07:45:52;;;;;;;4.90;3.40;;;;;;;-144.30;63.98;86402.47;5058263;28;20235;-56
2024/01/27 07:48:19;;;;;;;4.73;2.77;;;;;;;-144.30;63.51;86378.63;5049804;28;20200;-57
2024/01/27 07:50:48;;;;;;;3.20;2.67;;;;;;;-144.30;63.20;86346.81;5050045;28;20252;-57
2024/01/27 07:53:17;;;;;;;8.37;2.63;;;;;;;-144.30;63.22;86261.28;5050245;28;20196;-57
2024/01/27 07:55:44;;;;;;;4.37;3.23;;;;;;;-144.30;63.19;86374.63;5059893;28;20278;-58
2024/01/27 07:58:11;;;;;;;3.03;2.60;;;;;;;-144.30;63.40;86334.88;5080424;28;20252;-56
2024/01/27 08:00:38;;;;;;;3.40;3.10;;;;;;;-144.30;63.59;86354.75;5088722;28;20283;-57
2024/01/27 08:03:05;;;;;;;3.83;2.73;;;;;;;-144.30;64.92;86370.66;5089443;28;20199;-57
2024/01/27 08:05:32;;;;;;;4.40;3.07;;;;;;;-144.30;65.52;86370.66;5073913;28;20200;-57
2024/01/27 08:07:59;;;;;;;3.33;2.93;;;;;;;-144.30;66.47;86356.75;5063438;28;20235;-56
2024/01/27 08:10:28;;;;;;;3.37;3.07;;;;;;;-144.30;66.70;86350.78;5071256;28;20311;-57
2024/01/27 08:12:55;;;;;;;4.97;3.17;;;;;;;-144.30;66.92;86386.56;5054041;28;20254;-56
2024/01/27 08:15:22;;;;;;;3.40;2.90;;;;;;;-144.30;65.94;86350.78;5048585;28;20196;-57
2024/01/27 08:17:49;;;;;;;3.37;3.03;;;;;;;-144.30;65.78;86324.94;5051496;28;20631;-57
2024/01/27 08:20:16;;;;;;;5.50;3.07;;;;;;;-144.30;65.36;86342.81;5069165;28;20287;-58
2024/01/27 08:22:43;;;;;;;5.03;2.93;;;;;;;-144.30;64.55;86328.91;5069555;28;20227;-57
2024/01/27 08:25:10;;;;;;;4.73;2.93;;;;;;;-144.30;63.69;86283.16;5069570;28;20218;-58
2024/01/27 08:27:38;;;;;;;4.10;2.60;;;;;;;-144.30;62.95;86287.16;5069493;28;20727;-57
2024/01/27 08:30:07;;;;;;;4.90;3.20;;;;;;;-144.30;62.48;86314.97;5069377;28;20200;-57
2024/01/27 08:32:34;;;;;;;6.30;3.00;;;;;;;-144.30;61.21;86309.03;5069695;28;20200;-57
2024/01/27 08:35:01;;;;;;;6.33;3.03;;;;;;;-144.30;60.65;86291.13;5067554;28;20250;-58
2024/01/27 08:37:28;;;;;;;6.57;3.00;;;;;;;-144.30;60.65;86338.84;5067100;28;20822;-58
2024/01/27 08:39:55;;;;;;;8.27;3.35;;;;;;;-144.30;60.31;86303.06;5065445;28;20453;-57
2024/01/27 08:42:22;;;;;;;8.97;3.03;;;;;;;-144.30;59.56;86320.94;5068913;28;20187;-57
2024/01/27 08:44:51;;;;;;;5.00;2.43;;;;;;;-144.30;58.79;86265.28;5068773;28;20660;-57
2024/01/27 08:47:18;;;;;;;6.33;1.93;;;;;;;-144.30;57.98;86293.09;5068487;28;20224;-56
2024/01/27 08:49:45;;;;;;;5.13;2.00;;;;;;;-144.30;57.74;86255.34;5068500;28;20653;-56
2024/01/27 08:52:12;;;;;;;2.20;1.60;;;;;;;-144.30;58.30;86255.34;5061070;28;20212;-57
2024/01/27 08:54:39;;;;;;;7.10;2.67;;;;;;;-144.30;58.15;86267.25;5065430;28;20642;-57
2024/01/27 08:57:06;;;;;;;6.00;3.10;;;;;;;-144.30;58.83;86237.44;5058191;28;20215;-58
2024/01/27 08:59:33;;;;;;;4.10;2.90;;;;;;;-144.30;59.54;86247.38;5062181;28;20203;-57
2024/01/27 09:02:01;;;;;;;2.90;2.30;;;;;;;-144.30;60.50;86211.59;5066967;28;20204;-57
2024/01/27 09:04:28;;;;;;;8.00;2.80;;;;;;;-144.30;60.71;86237.44;5064555;28;20258;-57
2024/01/27 09:06:55;;;;;;;4.53;2.53;;;;;;;-144.30;61.32;86183.75;5061509;28;20201;-59
2024/01/27 09:09:22;;;;;;;9.27;3.00;;;;;;;-144.30;62.07;86177.78;5055867;28;20250;-58
2024/01/27 09:11:50;;;;;;;6.53;2.17;;;;;;;-144.30;62.43;86175.78;5062602;28;21243;-56
2024/01/27 09:14:17;;;;;;;6.50;2.43;;;;;;;-144.30;62.88;86159.88;5061324;28;20683;-57
2024/01/27 09:16:45;;;;;;;3.90;1.77;;;;;;;-144.30;62.59;86211.59;5052600;28;20280;-57
2024/01/27 09:19:14;;;;;;;3.43;2.23;;;;;;;-144.30;62.92;86165.84;5057617;28;20283;-58
2024/01/27 09:21:41;;;;;;;2.97;2.20;;;;;;;-144.30;63.00;86219.53;5062606;28;20196;-57
2024/01/27 09:24:08;;;;;;;4.27;2.40;;;;;;;-144.30;62.92;86221.53;5053543;28;20204;-59
2024/01/27 09:26:35;;;;;;;2.63;2.43;;;;;;;-144.30;63.33;86179.78;5061067;28;20234;-57
2024/01/27 09:29:02;;;;;;;2.90;2.70;;;;;;;-144.30;64.01;86179.78;5072058;28;20261;-57
2024/01/27 09:31:29;;;;;;;2.53;2.33;;;;;;;-144.30;62.73;86177.78;5072033;28;20220;-57
2024/01/27 09:33:58;;;;;;;6.93;2.73;;;;;;;-144.30;63.77;86181.75;5071113;28;20204;-57
2024/01/27 09:36:26;;;;;;;6.87;2.33;;;;;;;-144.30;60.79;86183.75;5060936;28;20212;-58
2024/01/27 09:38:54;;;;;;;17.03;3.73;;;;;;;-144.30;59.78;86155.91;5052364;28;20197;-58
2024/01/27 09:41:21;;;;;;;3.23;2.70;;;;;;;-144.30;58.98;86143.97;5051994;28;20197;-59
2024/01/27 09:43:49;;;;;;;5.33;2.77;;;;;;;-144.30;58.10;86169.81;5052070;28;20228;-58
2024/01/27 09:46:16;;;;;;;13.33;2.93;;;;;;;-144.30;57.55;86159.88;5052309;28;20684;-58
2024/01/27 09:48:43;;;;;;;5.53;3.00;;;;;;;-144.30;57.38;86140.00;5051540;28;20288;-58
2024/01/27 09:51:12;;;;;;;17.33;3.67;;;;;;;-144.30;56.45;86142.00;5070407;28;20311;-59
2024/01/27 09:53:41;;;;;;;17.93;3.43;;;;;;;-144.30;56.24;86128.06;5073100;28;20204;-58
2024/01/27 09:56:10;;;;;;;14.70;3.90;;;;;;;-144.30;56.53;86056.50;5071613;28;20208;-58
2024/01/27 09:58:38;;;;;;;8.83;3.13;;;;;;;-144.30;56.00;86098.25;5065305;28;20261;-57
2024/01/27 10:01:06;;;;;;;12.90;3.50;;;;;;;-144.30;55.32;86080.34;5063807;28;20205;-58
2024/01/27 10:03:35;;;;;;;5.20;2.30;;;;;;;-144.30;54.84;86114.16;5064010;28;20196;-58
2024/01/27 10:06:05;;;;;;;7.83;2.83;;;;;;;-144.30;54.64;86058.47;5061904;28;20207;-57
2024/01/27 10:08:32;;;;;;;6.17;2.50;;;;;;;-144.30;55.19;86108.19;5069349;28;20200;-58
2024/01/27 10:11:00;;;;;;;8.87;4.03;;;;;;;-144.30;55.00;86080.34;5066768;28;20216;-58
2024/01/27 10:13:27;;;;;;;3.97;2.40;;;;;;;-144.30;54.88;86094.28;5060713;28;20238;-57
2024/01/27 10:16:02;;;;;;;2.47;2.23;;;;;;;-144.30;54.89;86052.50;5063786;28;20197;-58
2024/01/27 10:18:29;;;;;;;5.53;2.20;;;;;;;-144.30;55.31;86084.34;5051121;28;20196;-58
2024/01/27 10:20:56;;;;;;;3.17;2.57;;;;;;;-144.30;54.91;86094.28;5050043;28;20204;-57
2024/01/27 10:23:23;;;;;;;6.87;2.77;;;;;;;-144.30;54.69;86020.69;5054117;28;20199;-58
2024/01/27 10:25:51;;;;;;;4.80;2.60;;;;;;;-144.30;54.88;86086.31;5062583;28;20950;-57
2024/01/27 10:28:20;;;;;;;2.43;2.20;;;;;;;-144.30;54.14;86064.44;5050082;28;20224;-57
2024/01/27 10:30:48;;;;;;;2.57;2.00;;;;;;;-144.30;54.30;86070.41;5050910;28;20227;-58
2024/01/27 10:33:16;;;;;;;2.30;2.10;;;;;;;-144.30;54.56;86060.47;5050892;28;20239;-58
2024/01/27 10:35:44;;;;;;;2.87;2.30;;;;;;;-144.30;54.63;86080.34;5049906;28;20197;-59
2024/01/27 10:38:11;;;;;;;3.23;2.57;;;;;;;-144.30;54.79;86056.50;5050717;28;20208;-58
2024/01/27 10:40:38;;;;;;;5.33;2.80;;;;;;;-144.30;54.50;86068.41;5050257;28;20288;-58
2024/01/27 10:43:06;;;;;;;5.77;3.80;;;;;;;-144.30;54.08;86108.19;5057101;28;20257;-58
2024/01/27 10:45:37;;;;;;;15.83;7.33;;;;;;;-144.30;54.08;86050.53;5070050;28;20287;-57
2024/01/27 10:48:05;;;;;;;24.70;7.87;;;;;;;-144.30;53.91;86108.19;5070389;28;20218;-57
2024/01/27 10:50:36;;;;;;;43.33;7.60;;;;;;;-144.30;53.92;86096.25;5070711;28;20196;-57
2024/01/27 10:53:14;;;;;;;21.47;7.77;;;;;;;-144.30;53.52;86032.63;5072105;28;20223;-58
2024/01/27 10:55:43;;;;;;;21.57;7.87;;;;;;;-144.30;53.31;86108.19;5058527;28;20234;-58
2024/01/27 10:58:13;;;;;;;15.10;6.50;;;;;;;-144.30;53.32;86060.47;5065512;28;20286;-59
2024/01/27 11:00:44;;;;;;;11.90;6.20;;;;;;;-144.30;53.19;86064.44;5056696;28;20292;-60
2024/01/27 11:03:12;;;;;;;31.60;8.37;;;;;;;-144.30;53.42;86038.59;5070224;28;20294;-58
2024/01/27 11:05:40;;;;;;;38.20;15.33;;;;;;;-144.30;53.99;86030.66;5065213;28;20611;-58
2024/01/27 11:08:12;;;;;;;10.07;4.00;;;;;;;-144.30;54.59;86050.53;5061528;28;20196;-58
2024/01/27 11:10:39;;;;;;;4.40;2.00;;;;;;;-144.30;54.42;86082.34;5051458;28;20678;-58
2024/01/27 11:13:08;;;;;;;25.10;3.23;;;;;;;-144.30;53.87;86084.34;5067000;28;20304;-59
2024/01/27 11:15:35;;;;;;;2.23;2.07;;;;;;;-144.30;53.98;86044.56;5057290;28;20588;-57
2024/01/27 11:18:05;;;;;;;2.70;2.13;;;;;;;-144.30;54.30;86068.41;5057782;28;20729;-57